Time;durP1;ratioP1;P1;durP2;ratioP2;P2;SDS_P1;SDS_P2;PMS_P1;PMS_P2;Temp;Humidity;BMP_temperature;BMP_pressure;BME280_temperature;BME280_humidity;BME280_pressure;Samples;Min_cycle;Max_cycle;Signal;HPM_P1;HPM_P2
2023/03/21 00:00:30;;;;;;;79.47;16.67;;;;;;;7.36;100.00;101484.16;4943316;28;20197;-73
2023/03/21 00:02:56;;;;;;;67.95;16.60;;;;;;;7.36;100.00;101478.00;4945251;28;20751;-73
2023/03/21 00:05:21;;;;;;;72.40;16.60;;;;;;;7.36;100.00;101489.44;4942992;28;20133;-72
2023/03/21 00:07:47;;;;;;;64.10;16.73;;;;;;;7.36;100.00;101476.25;4924308;28;20560;-73
2023/03/21 00:10:12;;;;;;;70.63;16.30;;;;;;;7.36;100.00;101481.53;4941317;28;20047;-73
2023/03/21 00:12:38;;;;;;;67.45;16.45;;;;;;;7.36;100.00;101473.63;4945030;28;20501;-74
2023/03/21 00:15:05;;;;;;;56.60;15.43;;;;;;;7.35;100.00;101471.88;4942308;28;20528;-74
2023/03/21 00:17:31;;;;;;;61.13;15.98;;;;;;;7.35;100.00;101479.75;4920735;28;20490;-74
2023/03/21 00:19:58;;;;;;;60.15;17.08;;;;;;;7.36;100.00;101476.25;4940939;28;20051;-74
2023/03/21 00:22:24;;;;;;;55.47;14.93;;;;;;;7.34;100.00;101468.38;4945465;28;20051;-73
2023/03/21 00:24:51;;;;;;;62.95;15.00;;;;;;;7.36;100.00;101476.25;4944657;28;20082;-73
2023/03/21 00:27:18;;;;;;;56.10;15.88;;;;;;;7.35;100.00;101471.88;4941410;28;21726;-73
2023/03/21 00:29:45;;;;;;;57.58;15.73;;;;;;;7.37;100.00;101469.22;4946378;28;20066;-73
2023/03/21 00:32:10;;;;;;;65.95;15.65;;;;;;;7.38;100.00;101476.19;4926991;28;20189;-73
2023/03/21 00:34:37;;;;;;;51.67;15.93;;;;;;;7.38;100.00;101470.94;4939493;28;20050;-73
2023/03/21 00:37:03;;;;;;;62.05;17.13;;;;;;;7.38;100.00;101463.91;4929468;28;20482;-73
2023/03/21 00:39:28;;;;;;;67.88;15.93;;;;;;;7.38;100.00;101463.91;4942068;28;20051;-74
2023/03/21 00:41:54;;;;;;;56.88;15.45;;;;;;;7.37;100.00;101451.66;4923853;28;20054;-73
2023/03/21 00:44:20;;;;;;;62.28;16.15;;;;;;;7.37;100.00;101462.19;4941000;28;20482;-73
2023/03/21 00:46:45;;;;;;;61.22;15.88;;;;;;;7.37;100.00;101454.28;4924493;28;20053;-73
2023/03/21 00:49:11;;;;;;;56.95;15.98;;;;;;;7.38;100.00;101452.50;4941467;28;20050;-74
2023/03/21 00:51:36;;;;;;;65.05;15.90;;;;;;;7.37;100.00;101445.50;4941197;28;20524;-73
2023/03/21 00:54:04;;;;;;;51.08;15.65;;;;;;;7.37;100.00;101451.66;4942198;28;20764;-73
2023/03/21 00:56:30;;;;;;;53.92;15.77;;;;;;;7.38;100.00;101450.75;4941385;28;20139;-74
2023/03/21 00:58:56;;;;;;;48.35;14.95;;;;;;;7.38;100.00;101445.47;4921568;28;20050;-74
2023/03/21 01:01:21;;;;;;;52.63;15.60;;;;;;;7.39;100.00;101452.47;4944658;28;20042;-73
2023/03/21 01:03:49;;;;;;;54.05;14.07;;;;;;;7.38;100.00;101440.19;4941581;28;20731;-74
2023/03/21 01:06:18;;;;;;;53.72;15.43;;;;;;;7.39;100.00;101441.94;4937595;28;20054;-74
2023/03/21 01:08:44;;;;;;;44.17;14.43;;;;;;;7.38;100.00;101440.19;4923107;28;20739;-74
2023/03/21 01:11:12;;;;;;;40.03;13.43;;;;;;;7.40;100.00;101441.03;4939927;28;20217;-74
2023/03/21 01:13:39;;;;;;;50.13;13.55;;;;;;;7.39;100.00;101427.88;4923136;28;20475;-74
2023/03/21 01:16:06;;;;;;;41.72;12.57;;;;;;;7.40;100.00;101435.75;4941243;28;20039;-74
2023/03/21 01:18:32;;;;;;;41.25;13.13;;;;;;;7.40;100.00;101430.50;4922431;28;20043;-73
2023/03/21 01:20:59;;;;;;;45.40;13.38;;;;;;;7.40;100.00;101430.50;4907021;28;20098;-74
2023/03/21 01:23:27;;;;;;;38.78;13.25;;;;;;;7.41;100.00;101426.09;4920053;28;20097;-74
2023/03/21 01:25:54;;;;;;;37.13;12.35;;;;;;;7.40;100.00;101427.84;4940716;28;20798;-74
2023/03/21 01:28:19;;;;;;;35.03;12.27;;;;;;;7.42;100.00;101433.09;4937859;28;20035;-74
2023/03/21 01:30:49;;;;;;;31.00;12.50;;;;;;;7.40;100.00;101419.94;4922533;28;20490;-74
2023/03/21 01:33:15;;;;;;;32.92;12.75;;;;;;;7.40;100.00;101417.31;4943003;28;20070;-74
2023/03/21 01:35:45;;;;;;;33.22;11.23;;;;;;;7.40;100.00;101419.94;4922874;28;20031;-74
2023/03/21 01:38:10;;;;;;;31.90;11.43;;;;;;;7.40;100.00;101419.94;4940523;28;20522;-74
2023/03/21 01:40:36;;;;;;;29.45;11.90;;;;;;;7.41;100.00;101410.28;4916604;28;20070;-74
2023/03/21 01:43:03;;;;;;;31.02;11.40;;;;;;;7.41;100.00;101407.66;4942617;28;20201;-74
2023/03/21 01:46:05;;;;;;;34.75;12.52;;;;;;;7.40;100.00;101409.41;4939326;28;20058;-74
2023/03/21 01:48:31;;;;;;;30.88;11.05;;;;;;;7.40;100.00;101408.56;4939836;28;20042;-74
2023/03/21 01:50:57;;;;;;;27.17;10.85;;;;;;;7.40;100.00;101401.50;4939964;28;20514;-74
2023/03/21 01:53:28;;;;;;;28.33;10.75;;;;;;;7.40;100.00;101406.78;4939048;28;21569;-74
2023/03/21 01:56:00;;;;;;;26.48;11.63;;;;;;;7.40;100.00;101406.78;4944894;28;20053;-74
2023/03/21 01:58:26;;;;;;;28.75;10.98;;;;;;;7.39;100.00;101389.25;4939243;28;20098;-74
2023/03/21 02:00:54;;;;;;;24.65;9.32;;;;;;;7.40;100.00;101393.59;4944475;28;20054;-74
2023/03/21 02:03:19;;;;;;;21.02;9.18;;;;;;;7.40;100.00;101390.97;4911334;28;20406;-74
2023/03/21 02:05:52;;;;;;;22.02;9.52;;;;;;;7.40;100.00;101392.75;4944643;28;20034;-73
2023/03/21 02:08:19;;;;;;;21.85;8.75;;;;;;;7.39;100.00;101383.97;4939712;28;20383;-73
2023/03/21 02:10:45;;;;;;;20.88;8.70;;;;;;;7.40;100.00;101385.69;4941069;28;20604;-74
2023/03/21 02:13:11;;;;;;;19.10;7.85;;;;;;;7.39;100.00;101383.97;4925620;28;20050;-74
2023/03/21 02:15:38;;;;;;;20.13;8.40;;;;;;;7.40;100.00;101388.34;4942317;28;21705;-74
2023/03/21 02:18:06;;;;;;;21.92;7.32;;;;;;;7.40;100.00;101377.78;4925799;28;20043;-74
2023/03/21 02:20:51;;;;;;;23.75;8.48;;;;;;;7.41;100.00;101379.53;4942910;28;20179;-74
2023/03/21 02:23:44;;;;;;;20.15;8.43;;;;;;;7.41;100.00;101382.16;4942955;28;20105;-73
2023/03/21 02:26:34;;;;;;;19.17;8.00;;;;;;;7.41;100.00;101366.34;4926727;28;20753;-74
2023/03/21 02:29:09;;;;;;;18.88;7.90;;;;;;;7.41;100.00;101376.88;4944028;28;20662;-73
2023/03/21 02:31:41;;;;;;;20.05;7.53;;;;;;;7.41;100.00;101366.34;4942630;28;20039;-73
2023/03/21 02:34:29;;;;;;;19.02;8.07;;;;;;;7.42;100.00;101365.44;4923905;28;21823;-73
2023/03/21 02:37:20;;;;;;;17.20;7.53;;;;;;;7.42;100.00;101368.06;4944461;28;20050;-74
2023/03/21 02:40:09;;;;;;;20.10;7.72;;;;;;;7.43;100.00;101361.06;4939313;28;20169;-73
2023/03/21 02:42:57;;;;;;;19.20;7.97;;;;;;;7.42;100.00;101354.06;4924464;28;20054;-73
2023/03/21 02:45:26;;;;;;;17.27;7.60;;;;;;;7.42;100.00;101356.69;4909706;28;20057;-72
2023/03/21 02:48:03;;;;;;;25.63;8.85;;;;;;;7.41;100.00;101349.69;4944363;28;20066;-73
2023/03/21 02:50:50;;;;;;;17.52;7.57;;;;;;;7.43;100.00;101351.41;4929592;28;20401;-73
2023/03/21 02:53:21;;;;;;;21.77;7.90;;;;;;;7.41;100.00;101347.06;4942458;28;20042;-74
2023/03/21 02:55:47;;;;;;;22.88;8.05;;;;;;;7.41;100.00;101349.69;4929249;28;20150;-74
2023/03/21 02:58:16;;;;;;;22.30;8.27;;;;;;;7.41;100.00;101344.44;4951895;28;20035;-73
2023/03/21 03:00:43;;;;;;;25.30;8.63;;;;;;;7.40;100.00;101340.91;4932947;28;20093;-73
2023/03/21 03:03:11;;;;;;;23.98;8.63;;;;;;;7.42;100.00;101339.09;4950049;28;20585;-72
2023/03/21 03:05:44;;;;;;;26.50;8.77;;;;;;;7.40;100.00;101335.66;4948469;28;20045;-73
2023/03/21 03:08:19;;;;;;;24.75;8.98;;;;;;;7.41;100.00;101340.00;4944747;28;20081;-73
2023/03/21 03:11:00;;;;;;;27.40;8.75;;;;;;;7.41;100.00;101334.75;4944016;28;20386;-72
2023/03/21 03:13:31;;;;;;;27.70;9.50;;;;;;;7.41;100.00;101332.09;4942837;28;20599;-72
2023/03/21 03:16:00;;;;;;;24.48;8.80;;;;;;;7.41;100.00;101334.75;4947078;28;20122;-73
2023/03/21 03:18:36;;;;;;;25.30;9.35;;;;;;;7.41;100.00;101334.75;4942441;28;20607;-72
2023/03/21 03:21:05;;;;;;;24.60;8.68;;;;;;;7.41;100.00;101334.75;4930696;28;20463;-72
2023/03/21 03:23:48;;;;;;;26.08;7.88;;;;;;;7.41;100.00;101331.25;4948772;28;20061;-72
2023/03/21 03:26:22;;;;;;;21.58;8.35;;;;;;;7.41;100.00;101329.47;4945635;28;20759;-72
2023/03/21 03:28:51;;;;;;;25.45;8.45;;;;;;;7.42;100.00;101331.19;4948062;28;20686;-73
2023/03/21 03:31:24;;;;;;;23.25;8.77;;;;;;;7.42;100.00;101325.06;4945211;28;20034;-73
2023/03/21 03:33:52;;;;;;;25.00;8.18;;;;;;;7.42;100.00;101333.81;4929654;28;20058;-73
2023/03/21 03:36:20;;;;;;;22.38;9.07;;;;;;;7.42;100.00;101320.66;4920610;28;20097;-73
2023/03/21 03:38:47;;;;;;;21.90;8.63;;;;;;;7.40;100.00;101322.47;4936311;28;20043;-73
2023/03/21 03:41:32;;;;;;;27.65;8.88;;;;;;;7.42;100.00;101317.19;4935052;28;20061;-73
2023/03/21 03:43:59;;;;;;;30.80;9.20;;;;;;;7.41;100.00;101308.41;4929146;28;20031;-73
2023/03/21 03:46:44;;;;;;;27.35;9.07;;;;;;;7.41;100.00;101313.66;4928186;28;20050;-74
2023/03/21 03:49:17;;;;;;;32.97;8.85;;;;;;;7.41;100.00;101307.53;4927795;28;20055;-73
2023/03/21 03:51:51;;;;;;;;;;;;;;;7.41;100.00;101313.66;4926938;28;20054;-73
2023/03/21 03:54:25;;;;;;;27.25;8.73;;;;;;;7.41;100.00;101311.03;4951267;28;19929;-73
2023/03/21 03:56:51;;;;;;;28.40;8.52;;;;;;;7.41;100.00;101308.41;4929699;28;20051;-73
2023/03/21 03:59:23;;;;;;;30.00;8.98;;;;;;;7.40;100.00;101311.94;4912362;28;20094;-73
2023/03/21 04:01:49;;;;;;;29.48;8.73;;;;;;;7.40;100.00;101309.31;4944393;28;20042;-74
2023/03/21 04:04:15;;;;;;;29.20;8.70;;;;;;;7.40;100.00;101306.66;4929783;28;20109;-73
2023/03/21 04:06:50;;;;;;;28.20;8.50;;;;;;;7.40;100.00;101304.03;4944151;28;20039;-73
2023/03/21 04:09:17;;;;;;;29.98;9.63;;;;;;;7.40;100.00;101300.56;4942699;28;20055;-73
2023/03/21 04:11:42;;;;;;;28.65;8.93;;;;;;;7.41;100.00;101305.75;4927865;28;20035;-73
2023/03/21 04:14:08;;;;;;;29.02;8.63;;;;;;;7.40;100.00;101300.56;4942068;28;20097;-73
2023/03/21 04:16:33;;;;;;;34.92;9.27;;;;;;;7.40;100.00;101301.41;4945924;28;20625;-73
2023/03/21 04:18:59;;;;;;;31.20;8.43;;;;;;;7.41;100.00;101300.50;4946987;28;20523;-73
2023/03/21 04:21:26;;;;;;;28.48;8.98;;;;;;;7.42;100.00;101304.00;4944168;28;20152;-73
2023/03/21 04:23:53;;;;;;;34.97;9.30;;;;;;;7.41;100.00;101304.91;4947264;28;20181;-73
2023/03/21 04:26:21;;;;;;;30.15;8.93;;;;;;;7.40;100.00;101293.50;4928717;28;20150;-73
2023/03/21 04:28:47;;;;;;;31.63;9.13;;;;;;;7.43;100.00;101300.47;4924794;28;20047;-73
2023/03/21 04:31:13;;;;;;;28.92;8.65;;;;;;;7.41;100.00;101297.00;4913397;28;20530;-74
2023/03/21 04:33:39;;;;;;;26.73;8.57;;;;;;;7.41;100.00;101297.84;4924989;28;20084;-74
2023/03/21 04:36:08;;;;;;;22.42;8.40;;;;;;;7.41;100.00;101287.31;4910513;28;20042;-74
2023/03/21 04:38:35;;;;;;;26.95;8.48;;;;;;;7.40;100.00;101290.84;4943815;28;20061;-73
2023/03/21 04:41:01;;;;;;;23.83;8.82;;;;;;;7.41;100.00;101286.47;4915243;28;20035;-73
2023/03/21 04:43:27;;;;;;;23.30;7.75;;;;;;;7.41;100.00;101278.56;4922746;28;22263;-73
2023/03/21 04:45:53;;;;;;;21.30;7.25;;;;;;;7.40;100.00;101275.06;4940795;28;20506;-73
2023/03/21 04:48:19;;;;;;;24.33;8.55;;;;;;;7.40;100.00;101275.06;4929765;28;20065;-73
2023/03/21 04:50:45;;;;;;;23.10;8.30;;;;;;;7.40;100.00;101277.69;4912183;28;20482;-73
2023/03/21 04:53:11;;;;;;;20.92;7.80;;;;;;;7.41;100.00;101282.03;4943450;28;20593;-74
2023/03/21 04:55:37;;;;;;;18.80;7.93;;;;;;;7.41;100.00;101273.28;4927810;28;20039;-73
2023/03/21 04:58:03;;;;;;;25.00;8.57;;;;;;;7.41;100.00;101266.25;4945947;28;20038;-73
2023/03/21 05:00:29;;;;;;;20.27;8.13;;;;;;;7.41;100.00;101268.88;4931089;28;20465;-73
2023/03/21 05:02:56;;;;;;;19.33;8.02;;;;;;;7.41;100.00;101266.25;4941270;28;20047;-73
2023/03/21 05:05:22;;;;;;;20.45;8.73;;;;;;;7.41;100.00;101266.25;4943462;28;20236;-73
2023/03/21 05:07:47;;;;;;;24.55;9.02;;;;;;;7.40;100.00;101267.16;4917141;28;20171;-73
2023/03/21 05:10:13;;;;;;;25.33;9.23;;;;;;;7.41;100.00;101262.75;4945303;28;20071;-73
2023/03/21 05:12:38;;;;;;;21.23;8.55;;;;;;;7.41;100.00;101262.75;4945127;28;20047;-73
2023/03/21 05:15:05;;;;;;;25.80;9.38;;;;;;;7.40;100.00;101267.16;4944225;28;20059;-73
2023/03/21 05:17:30;;;;;;;25.95;9.77;;;;;;;7.41;100.00;101270.66;4944379;28;20461;-73
2023/03/21 05:19:56;;;;;;;22.70;9.50;;;;;;;7.41;100.00;101270.66;4928729;28;20038;-73
2023/03/21 05:22:23;;;;;;;27.30;10.05;;;;;;;7.40;100.00;101272.41;4942902;28;20148;-73
2023/03/21 05:24:49;;;;;;;26.17;9.75;;;;;;;7.40;100.00;101266.31;4908802;28;20051;-73
2023/03/21 05:27:33;;;;;;;23.85;9.07;;;;;;;7.40;100.00;101264.53;4926512;28;20043;-74
2023/03/21 05:30:12;;;;;;;26.10;10.20;;;;;;;7.40;100.00;101264.53;4909270;28;20529;-72
2023/03/21 05:32:38;;;;;;;27.10;9.23;;;;;;;7.41;100.00;101254.84;4905459;28;20046;-73
2023/03/21 05:35:04;;;;;;;22.63;8.43;;;;;;;7.42;100.00;101262.69;4926733;28;20059;-74
2023/03/21 05:37:30;;;;;;;22.00;8.45;;;;;;;7.41;100.00;101266.25;4907927;28;20439;-73
2023/03/21 05:40:05;;;;;;;26.25;9.48;;;;;;;7.43;100.00;101261.81;4925354;28;20039;-73
2023/03/21 05:42:31;;;;;;;25.67;9.27;;;;;;;7.44;100.00;101265.31;4923791;28;20475;-73
2023/03/21 05:44:56;;;;;;;23.33;8.38;;;;;;;7.44;100.00;101260.91;4908277;28;20645;-73
2023/03/21 05:47:22;;;;;;;23.50;8.60;;;;;;;7.44;100.00;101268.81;4922656;28;20058;-73
2023/03/21 05:49:48;;;;;;;21.63;8.32;;;;;;;7.45;100.00;101265.28;4904490;28;20056;-73
2023/03/21 05:52:14;;;;;;;24.75;7.85;;;;;;;7.46;100.00;101266.13;4906045;28;21733;-73
2023/03/21 05:54:40;;;;;;;22.02;8.45;;;;;;;7.46;100.00;101272.25;4906386;28;20055;-73
2023/03/21 05:57:06;;;;;;;22.55;8.98;;;;;;;7.46;100.00;101258.22;4906418;28;20165;-73
2023/03/21 05:59:31;;;;;;;23.88;9.45;;;;;;;7.47;100.00;101267.88;4909646;28;20047;-73
2023/03/21 06:01:57;;;;;;;25.27;10.00;;;;;;;7.47;100.00;101259.97;4930804;28;20469;-73
2023/03/21 06:04:22;;;;;;;25.15;9.38;;;;;;;7.47;100.00;101262.59;4928171;28;20447;-72
2023/03/21 06:06:49;;;;;;;20.73;9.02;;;;;;;7.48;100.00;101262.53;4923938;28;20047;-73
2023/03/21 06:09:15;;;;;;;25.60;10.05;;;;;;;7.48;100.00;101265.19;4930156;28;20053;-73
2023/03/21 06:11:45;;;;;;;24.42;10.40;;;;;;;7.48;100.00;101259.91;4930230;28;20059;-73
2023/03/21 06:14:10;;;;;;;28.25;10.40;;;;;;;7.48;100.00;101265.19;4924530;28;20051;-72
2023/03/21 06:16:36;;;;;;;25.50;9.95;;;;;;;7.50;100.00;101261.63;4929733;28;20518;-73
2023/03/21 06:19:01;;;;;;;27.38;10.68;;;;;;;7.50;100.00;101269.53;4928387;28;20582;-73
2023/03/21 06:21:27;;;;;;;27.33;10.25;;;;;;;7.48;100.00;101265.19;4929361;28;20522;-74
2023/03/21 06:23:52;;;;;;;29.20;10.35;;;;;;;7.49;100.00;101266.06;4941430;28;20059;-73
2023/03/21 06:26:22;;;;;;;26.73;9.93;;;;;;;7.49;100.00;101266.06;4927572;28;20054;-72
2023/03/21 06:28:51;;;;;;;28.23;10.68;;;;;;;7.50;100.00;101266.91;4932069;28;20074;-72
2023/03/21 06:31:17;;;;;;;25.05;10.20;;;;;;;7.50;100.00;101259.00;4930174;28;20516;-72
2023/03/21 06:33:43;;;;;;;22.52;9.63;;;;;;;7.50;100.00;101264.28;4945815;28;20051;-73
2023/03/21 06:36:11;;;;;;;25.52;10.70;;;;;;;7.52;100.00;101262.47;4948400;28;20050;-73
2023/03/21 06:38:36;;;;;;;25.08;10.52;;;;;;;7.51;100.00;101256.34;4946930;28;20070;-72
2023/03/21 06:41:03;;;;;;;24.73;10.45;;;;;;;7.53;100.00;101264.22;4929876;28;20490;-73
2023/03/21 06:43:30;;;;;;;22.08;9.95;;;;;;;7.54;100.00;101263.28;4923999;28;20057;-72
2023/03/21 06:45:56;;;;;;;25.33;10.55;;;;;;;7.54;100.00;101261.53;4925017;28;20087;-73
2023/03/21 06:48:21;;;;;;;25.52;10.25;;;;;;;7.54;100.00;101258.03;4947190;28;20703;-73
2023/03/21 06:50:48;;;;;;;25.00;10.73;;;;;;;7.54;100.00;101256.28;4948905;28;20038;-73
2023/03/21 06:53:13;;;;;;;28.13;11.10;;;;;;;7.54;100.00;101258.03;4947675;28;20042;-73
2023/03/21 06:55:39;;;;;;;26.40;10.77;;;;;;;7.55;100.00;101262.38;4947676;28;21536;-73
2023/03/21 06:58:04;;;;;;;27.85;10.93;;;;;;;7.55;100.00;101267.66;4930287;28;20759;-73
2023/03/21 07:00:30;;;;;;;27.48;11.40;;;;;;;7.55;100.00;101262.38;4927893;28;22166;-73
2023/03/21 07:02:55;;;;;;;28.40;11.70;;;;;;;7.55;100.00;101267.66;4947588;28;20186;-72
2023/03/21 07:05:21;;;;;;;26.38;11.98;;;;;;;7.55;100.00;101260.63;4951355;28;20077;-73
2023/03/21 07:07:52;;;;;;;27.17;11.70;;;;;;;7.56;100.00;101261.47;4944369;28;20047;-74
2023/03/21 07:10:18;;;;;;;30.30;11.50;;;;;;;7.56;100.00;101269.38;4947590;28;20124;-74
2023/03/21 07:12:43;;;;;;;28.67;11.93;;;;;;;7.57;100.00;101263.22;4968394;28;20145;-74
2023/03/21 07:15:09;;;;;;;23.20;10.95;;;;;;;7.57;100.00;101266.72;4940281;28;20046;-74
2023/03/21 07:17:34;;;;;;;25.30;10.50;;;;;;;7.58;100.00;101270.22;4930298;28;21099;-75
2023/03/21 07:20:00;;;;;;;23.50;10.75;;;;;;;7.59;100.00;101258.78;4911201;28;20142;-72
2023/03/21 07:22:25;;;;;;;25.48;10.60;;;;;;;7.58;100.00;101264.97;4918205;29;20052;-72
2023/03/21 07:24:51;;;;;;;19.83;9.07;;;;;;;7.58;100.00;101273.72;4922245;29;20118;-71
2023/03/21 07:27:17;;;;;;;22.30;10.45;;;;;;;7.58;100.00;101267.59;4919518;29;20065;-73
2023/03/21 07:29:43;;;;;;;19.63;10.07;;;;;;;7.60;100.00;101263.13;4905371;28;20637;-71
2023/03/21 07:32:10;;;;;;;20.55;8.88;;;;;;;7.59;100.00;101261.41;4920966;28;20055;-72
2023/03/21 07:34:36;;;;;;;18.00;8.77;;;;;;;7.59;100.00;101264.06;4919733;28;20767;-72
2023/03/21 07:37:03;;;;;;;18.85;9.18;;;;;;;7.60;100.00;101263.13;4918164;28;20056;-72
2023/03/21 07:39:28;;;;;;;20.20;8.88;;;;;;;7.59;100.00;101261.41;4902513;29;20035;-71
2023/03/21 07:41:56;;;;;;;19.48;8.82;;;;;;;7.59;100.00;101259.63;4922926;29;20046;-72
2023/03/21 07:44:22;;;;;;;19.52;8.65;;;;;;;7.59;100.00;101262.25;4927188;29;20063;-72
2023/03/21 07:46:47;;;;;;;19.55;9.77;;;;;;;7.60;100.00;101265.78;4925629;28;20433;-72
2023/03/21 07:49:13;;;;;;;22.55;10.85;;;;;;;7.58;100.00;101263.16;4924945;29;20508;-72
2023/03/21 07:51:39;;;;;;;24.23;11.45;;;;;;;7.58;100.00;101267.59;4925112;29;20075;-72
2023/03/21 07:54:04;;;;;;;25.20;11.60;;;;;;;7.57;100.00;101261.44;4926978;29;20474;-74
2023/03/21 07:56:30;;;;;;;23.73;11.82;;;;;;;7.56;100.00;101258.84;4907430;28;20039;-72
2023/03/21 07:58:55;;;;;;;24.02;11.70;;;;;;;7.56;100.00;101258.84;4926445;28;20061;-72
2023/03/21 08:01:21;;;;;;;26.45;11.90;;;;;;;7.56;100.00;101254.44;4925082;29;20077;-73
2023/03/21 08:03:46;;;;;;;24.38;11.65;;;;;;;7.58;100.00;101257.06;4923870;28;20667;-73
2023/03/21 08:06:14;;;;;;;22.98;12.32;;;;;;;7.57;100.00;101255.34;4904426;29;21214;-73
2023/03/21 08:08:39;;;;;;;25.00;12.05;;;;;;;7.59;100.00;101259.63;4903309;29;20043;-71
2023/03/21 08:11:05;;;;;;;21.45;10.93;;;;;;;7.60;100.00;101256.13;4925736;29;20095;-71
2023/03/21 08:13:32;;;;;;;25.33;11.68;;;;;;;7.60;100.00;101261.38;4923796;28;20118;-72
2023/03/21 08:15:57;;;;;;;27.50;12.48;;;;;;;7.61;100.00;101259.59;4891941;29;20039;-72
2023/03/21 08:18:23;;;;;;;26.92;12.75;;;;;;;7.63;100.00;101249.03;4901515;29;20074;-72
2023/03/21 08:20:53;;;;;;;26.52;12.15;;;;;;;7.65;100.00;101236.66;4925370;29;20308;-72
2023/03/21 08:23:20;;;;;;;26.65;12.52;;;;;;;7.68;100.00;101237.44;4922237;28;20086;-72
2023/03/21 08:25:50;;;;;;;27.63;12.88;;;;;;;7.71;100.00;101236.50;4925746;28;20462;-72
2023/03/21 08:28:15;;;;;;;32.13;13.70;;;;;;;7.72;100.00;101241.72;4903053;29;20074;-72
2023/03/21 08:30:40;;;;;;;32.03;14.35;;;;;;;7.75;100.00;101243.44;4924535;28;20051;-71
2023/03/21 08:33:06;;;;;;;29.88;14.85;;;;;;;7.75;100.00;101233.72;4900493;28;20417;-72
2023/03/21 08:35:32;;;;;;;32.30;15.80;;;;;;;7.80;100.00;101238.88;4915209;28;20051;-72
2023/03/21 08:37:57;;;;;;;30.80;14.80;;;;;;;7.82;100.00;101233.56;4918631;28;20406;-72
2023/03/21 08:40:23;;;;;;;31.77;15.10;;;;;;;7.82;100.00;101231.81;4899575;28;20047;-72
2023/03/21 08:42:48;;;;;;;28.95;14.32;;;;;;;7.82;100.00;101225.66;4923635;29;20062;-72
2023/03/21 08:45:15;;;;;;;29.35;13.95;;;;;;;7.82;100.00;101230.94;4923803;29;20070;-72
2023/03/21 08:47:41;;;;;;;33.53;14.18;;;;;;;7.85;100.00;101231.72;4905904;28;20048;-72
2023/03/21 08:50:11;;;;;;;32.33;13.82;;;;;;;7.88;100.00;101233.41;4921774;28;20101;-71
2023/03/21 08:52:36;;;;;;;28.15;13.07;;;;;;;7.90;100.00;101230.72;4893837;28;20043;-71
2023/03/21 08:55:02;;;;;;;31.05;13.23;;;;;;;7.92;100.00;101229.78;4909102;28;20047;-72
2023/03/21 08:57:28;;;;;;;25.00;11.75;;;;;;;7.94;100.00;101232.34;4909740;28;22168;-72
2023/03/21 08:59:54;;;;;;;27.75;13.27;;;;;;;7.96;100.00;101228.75;4912855;28;20038;-73
2023/03/21 09:02:20;;;;;;;28.60;12.13;;;;;;;8.00;100.00;101221.63;4913183;28;20071;-73
2023/03/21 09:04:46;;;;;;;30.17;13.30;;;;;;;8.05;100.00;101218.88;4914217;28;20361;-72
2023/03/21 09:07:13;;;;;;;28.77;12.73;;;;;;;8.10;100.00;101222.22;4909816;28;20539;-72
2023/03/21 09:09:40;;;;;;;30.70;12.90;;;;;;;8.14;100.00;101218.59;4913708;28;20647;-72
2023/03/21 09:12:06;;;;;;;33.15;12.73;;;;;;;8.18;100.00;101212.34;4909779;28;20061;-73
2023/03/21 09:14:33;;;;;;;28.70;12.63;;;;;;;8.22;100.00;101213.97;4912242;28;20130;-72
2023/03/21 09:16:59;;;;;;;28.08;13.57;;;;;;;8.26;100.00;101209.47;4896673;29;21033;-72
2023/03/21 09:19:26;;;;;;;28.70;13.98;;;;;;;8.28;100.00;101211.16;4892474;28;20173;-71
2023/03/21 09:21:52;;;;;;;28.83;13.55;;;;;;;8.28;100.00;101208.50;4909427;28;20035;-71
2023/03/21 09:24:19;;;;;;;33.75;14.10;;;;;;;8.28;100.00;101200.59;4896827;28;20054;-71
2023/03/21 09:26:45;;;;;;;31.90;15.10;;;;;;;8.27;100.00;101203.28;4911251;28;20070;-71
2023/03/21 09:29:11;;;;;;;34.17;14.77;;;;;;;8.26;100.00;101205.06;4907387;28;20047;-72
2023/03/21 09:31:36;;;;;;;30.20;14.57;;;;;;;8.26;100.00;101202.44;4912562;28;20721;-72
2023/03/21 09:34:02;;;;;;;30.92;14.57;;;;;;;8.24;100.00;101198.94;4909734;28;20137;-71
2023/03/21 09:36:33;;;;;;;26.67;13.40;;;;;;;8.25;100.00;101213.88;4899665;28;20165;-71
2023/03/21 09:38:59;;;;;;;27.33;13.35;;;;;;;8.23;100.00;101202.50;4915937;28;20039;-71
2023/03/21 09:41:54;;;;;;;30.85;13.82;;;;;;;8.21;100.00;101198.19;4914794;28;20147;-72
2023/03/21 09:45:00;;;;;;;26.23;12.35;;;;;;;8.22;100.00;101194.66;4909363;28;20475;-71
2023/03/21 09:47:33;;;;;;;30.95;12.23;;;;;;;8.24;100.00;101188.41;4904709;28;20054;-71
2023/03/21 09:50:15;;;;;;;26.95;12.20;;;;;;;8.25;100.00;101189.28;4890829;28;20232;-71
2023/03/21 09:52:57;;;;;;;25.42;12.23;;;;;;;8.29;100.00;101190.91;4901425;28;20309;-71
2023/03/21 09:55:29;;;;;;;26.02;10.95;;;;;;;8.34;100.00;101188.97;4908419;28;20059;-71
2023/03/21 09:58:04;;;;;;;27.98;12.43;;;;;;;8.37;100.00;101194.19;4886775;29;20158;-71
2023/03/21 10:00:36;;;;;;;29.77;12.77;;;;;;;8.41;100.00;101190.53;4893053;28;20051;-72
2023/03/21 10:03:23;;;;;;;25.27;12.18;;;;;;;8.47;100.00;101193.88;4906591;28;20043;-71
2023/03/21 10:05:51;;;;;;;29.27;12.88;;;;;;;8.50;100.00;101194.66;4910186;28;20118;-71
2023/03/21 10:08:30;;;;;;;27.95;13.30;;;;;;;8.55;100.00;101186.63;4905970;28;20129;-72
2023/03/21 10:11:00;;;;;;;29.88;13.30;;;;;;;8.53;100.00;101184.06;4909815;28;20135;-72
2023/03/21 10:13:29;;;;;;;27.77;13.20;;;;;;;8.58;100.00;101198.84;4893578;28;20047;-72
2023/03/21 10:15:56;;;;;;;29.45;14.00;;;;;;;8.63;100.00;101189.91;4912746;28;20379;-72
2023/03/21 10:18:25;;;;;;;32.67;13.02;;;;;;;8.66;100.00;101188.94;4911223;28;20685;-72
2023/03/21 10:20:50;;;;;;;30.67;13.15;;;;;;;8.76;100.00;101190.38;4900869;28;20056;-71
2023/03/21 10:23:18;;;;;;;32.80;13.35;;;;;;;8.88;100.00;101182.97;4903814;28;20054;-70
2023/03/21 10:25:51;;;;;;;26.40;12.40;;;;;;;8.95;100.00;101184.50;4894167;29;20084;-71
2023/03/21 10:28:21;;;;;;;;;;;;;;;9.01;100.00;101172.84;4908315;28;20078;-71
2023/03/21 10:30:52;;;;;;;23.38;11.65;;;;;;;9.10;100.00;101175.19;4902895;28;20065;-71
2023/03/21 10:33:27;;;;;;;24.58;10.98;;;;;;;9.16;100.00;101161.75;4905597;28;20048;-72
2023/03/21 10:35:56;;;;;;;24.40;10.55;;;;;;;9.19;100.00;101155.50;4906161;28;20315;-71
2023/03/21 10:38:23;;;;;;;21.27;10.27;;;;;;;9.21;100.00;101151.06;4874877;28;20047;-72
2023/03/21 10:40:49;;;;;;;25.30;10.70;;;;;;;9.25;100.00;101150.00;4905122;28;20046;-72
2023/03/21 10:43:28;;;;;;;19.30;9.95;;;;;;;9.27;100.00;101142.91;4907211;28;20060;-72
2023/03/21 10:45:54;;;;;;;21.40;10.07;;;;;;;9.30;100.00;101141.91;4906390;28;20039;-72
2023/03/21 10:48:20;;;;;;;20.17;9.90;;;;;;;9.30;100.00;101134.88;4891861;28;20184;-71
2023/03/21 10:50:48;;;;;;;19.17;9.50;;;;;;;9.31;100.00;101144.50;4900372;28;20154;-71
2023/03/21 10:53:20;;;;;;;18.80;9.02;;;;;;;9.35;100.00;101130.28;4910805;28;20555;-72
2023/03/21 10:55:55;;;;;;;18.58;8.32;;;;;;;9.42;100.00;101128.28;4902454;28;20035;-72
2023/03/21 10:58:26;;;;;;;15.57;8.50;;;;;;;9.45;100.00;101130.81;4910642;28;21778;-72
2023/03/21 11:01:01;;;;;;;18.13;8.75;;;;;;;9.47;100.00;101128.09;4891760;29;20039;-72
2023/03/21 11:03:30;;;;;;;17.90;8.32;;;;;;;9.49;100.00;101123.63;4908057;28;20055;-72
2023/03/21 11:06:01;;;;;;;13.07;7.75;;;;;;;9.55;100.00;101128.69;4888618;28;20039;-72
2023/03/21 11:08:27;;;;;;;16.08;8.30;;;;;;;9.62;100.00;101119.63;4909582;28;20102;-73
2023/03/21 11:11:07;;;;;;;12.55;7.45;;;;;;;9.62;100.00;101111.69;4915649;28;20221;-73
2023/03/21 11:13:37;;;;;;;13.50;8.07;;;;;;;9.64;100.00;101123.06;4909594;28;20052;-73
2023/03/21 11:16:07;;;;;;;13.77;7.45;;;;;;;9.65;100.00;101122.16;4897276;28;20071;-73
2023/03/21 11:18:39;;;;;;;12.50;7.35;;;;;;;9.67;100.00;101122.09;4919699;28;20086;-74
2023/03/21 11:21:07;;;;;;;11.88;7.32;;;;;;;9.71;100.00;101120.19;4900246;29;20065;-73